Time;durP1;ratioP1;P1;durP2;ratioP2;P2;SDS_P1;SDS_P2;PMS_P1;PMS_P2;Temp;Humidity;BMP_temperature;BMP_pressure;BME280_temperature;BME280_humidity;BME280_pressure;Samples;Min_cycle;Max_cycle;Signal;HPM_P1;HPM_P2
2022/09/02 00:01:22;;;;;;;2.70;1.10;;;;;;;20.84;36.70;100670.38;117102;1183;21858;-66
2022/09/02 00:03:50;;;;;;;9.20;2.00;;;;;;;20.85;36.71;100669.83;117205;1182;22928;-66
2022/09/02 00:06:17;;;;;;;2.80;1.10;;;;;;;20.85;36.67;100672.09;117275;1182;23448;-60
2022/09/02 00:08:44;;;;;;;5.90;1.50;;;;;;;20.85;36.71;100674.06;117074;1183;21889;-59
2022/09/02 00:11:14;;;;;;;3.30;1.30;;;;;;;20.85;36.73;100675.17;116937;1184;22622;-59
2022/09/02 00:13:41;;;;;;;13.30;1.90;;;;;;;20.83;36.77;100673.64;117100;1183;21959;-65
2022/09/02 00:16:09;;;;;;;5.00;1.50;;;;;;;20.82;36.87;100671.73;117068;1183;24224;-59
2022/09/02 00:18:36;;;;;;;4.70;1.00;;;;;;;20.80;36.89;100673.25;116990;1187;21851;-66
2022/09/02 00:21:04;;;;;;;2.80;1.30;;;;;;;20.77;36.87;100677.46;117071;1187;22938;-59
2022/09/02 00:23:31;;;;;;;6.30;1.70;;;;;;;20.76;37.01;100681.45;116915;1184;21865;-66
2022/09/02 00:25:58;;;;;;;7.00;1.30;;;;;;;20.71;37.13;100681.32;117058;1185;23471;-60
2022/09/02 00:28:26;;;;;;;6.50;1.30;;;;;;;20.66;37.22;100683.02;117044;1182;22929;-59
2022/09/02 00:30:53;;;;;;;3.80;1.30;;;;;;;20.58;37.35;100683.73;117080;1188;23451;-60
2022/09/02 00:33:20;;;;;;;5.40;0.90;;;;;;;20.48;37.49;100685.30;117072;1188;21878;-66
2022/09/02 00:35:47;;;;;;;4.20;1.10;;;;;;;20.39;37.60;100688.23;117198;1188;21855;-63
2022/09/02 00:38:14;;;;;;;3.60;1.50;;;;;;;20.29;37.67;100689.23;116956;1187;23561;-60
2022/09/02 00:40:46;;;;;;;6.20;1.20;;;;;;;20.21;37.72;100691.60;116912;1189;23579;-64
2022/09/02 00:43:39;;;;;;;3.10;1.30;;;;;;;20.15;37.84;100694.90;116946;1184;21856;-59
2022/09/02 00:46:06;;;;;;;5.10;1.20;;;;;;;20.09;37.78;100699.43;116952;1187;23580;-59
2022/09/02 00:48:34;;;;;;;6.70;1.40;;;;;;;20.06;37.92;100701.57;117110;1186;24259;-64
2022/09/02 00:51:03;;;;;;;5.80;1.30;;;;;;;20.03;37.98;100704.19;117106;1182;22938;-58
2022/09/02 00:53:32;;;;;;;5.00;1.20;;;;;;;20.00;38.08;100705.77;116949;1184;22647;-59
2022/09/02 00:55:59;;;;;;;3.40;1.20;;;;;;;19.98;38.20;100698.71;117140;1182;21908;-66
2022/09/02 00:58:29;;;;;;;5.40;1.70;;;;;;;19.95;38.37;100702.23;116979;1183;24229;-66
2022/09/02 01:00:56;;;;;;;3.20;0.90;;;;;;;19.90;38.46;100701.91;117009;1186;22992;-58
2022/09/02 01:03:25;;;;;;;7.10;1.60;;;;;;;19.86;38.56;100701.38;117141;1186;24232;-60
2022/09/02 01:05:52;;;;;;;6.70;1.30;;;;;;;19.84;38.58;100699.52;117066;1185;22918;-59
2022/09/02 01:08:24;;;;;;;4.00;1.20;;;;;;;19.85;38.66;100699.80;117120;1186;23472;-65
2022/09/02 01:10:53;;;;;;;8.20;1.60;;;;;;;19.88;38.71;100700.04;117084;1182;23651;-58
2022/09/02 01:13:23;;;;;;;7.90;1.50;;;;;;;19.91;38.72;100697.41;117134;1188;21928;-64
2022/09/02 01:16:16;;;;;;;8.80;1.50;;;;;;;19.94;38.70;100693.91;117113;1187;21911;-65
2022/09/02 01:18:46;;;;;;;8.50;1.90;;;;;;;20.01;38.59;100693.04;117064;1186;24162;-64
2022/09/02 01:21:13;;;;;;;3.50;1.10;;;;;;;20.07;38.54;100693.48;117132;1186;21864;-59
2022/09/02 01:23:40;;;;;;;5.80;1.20;;;;;;;20.13;38.49;100699.26;117176;1182;23585;-59
2022/09/02 01:26:08;;;;;;;6.90;1.60;;;;;;;20.15;38.48;100699.70;116997;1188;21865;-65
2022/09/02 01:28:35;;;;;;;6.70;1.70;;;;;;;20.16;38.56;100697.33;117029;1182;23532;-64
2022/09/02 01:31:02;;;;;;;6.40;1.30;;;;;;;20.18;38.53;100701.38;117099;1184;22452;-59
2022/09/02 01:33:29;;;;;;;7.50;1.40;;;;;;;20.18;38.56;100704.18;117247;1186;21888;-58
2022/09/02 01:35:57;;;;;;;4.70;1.20;;;;;;;20.19;38.51;100706.09;117067;1187;21857;-64
2022/09/02 01:38:24;;;;;;;4.90;1.60;;;;;;;20.20;38.43;100708.95;117276;1186;24165;-59
2022/09/02 01:40:52;;;;;;;4.10;1.20;;;;;;;20.20;38.48;100712.50;117073;1183;23322;-64
2022/09/02 01:43:21;;;;;;;5.50;1.20;;;;;;;20.21;38.56;100714.56;117106;1184;24151;-58
2022/09/02 01:45:50;;;;;;;8.00;1.40;;;;;;;20.23;38.54;100711.82;117083;1188;21867;-58
2022/09/02 01:48:18;;;;;;;9.80;2.00;;;;;;;20.26;38.54;100715.42;116968;1185;23091;-63
2022/09/02 01:50:52;;;;;;;8.40;1.40;;;;;;;20.31;38.54;100721.07;116978;1187;23455;-65
2022/09/02 01:53:19;;;;;;;8.30;1.10;;;;;;;20.37;38.48;100727.17;117114;1183;23454;-59
2022/09/02 01:55:46;;;;;;;5.80;1.30;;;;;;;20.42;38.48;100727.32;117073;1186;21849;-58
2022/09/02 01:58:13;;;;;;;6.20;1.10;;;;;;;20.47;38.38;100730.98;117240;1186;23005;-64
2022/09/02 02:00:40;;;;;;;5.10;1.30;;;;;;;20.52;38.33;100731.48;117066;1177;24187;-64
2022/09/02 02:03:07;;;;;;;4.80;1.00;;;;;;;20.56;38.35;100738.77;117038;1188;22916;-59
2022/09/02 02:05:35;;;;;;;2.20;1.20;;;;;;;20.59;38.24;100742.19;117082;1184;21851;-65
2022/09/02 02:08:02;;;;;;;3.50;1.10;;;;;;;20.60;38.24;100749.23;117099;1188;23450;-58
2022/09/02 02:10:29;;;;;;;3.60;1.10;;;;;;;20.61;38.21;100747.06;117149;1186;22927;-64
2022/09/02 02:12:57;;;;;;;2.70;1.10;;;;;;;20.61;38.26;100748.65;117158;1184;21870;-59
2022/09/02 02:15:24;;;;;;;7.60;0.90;;;;;;;20.62;38.30;100750.58;117183;1185;22927;-58
2022/09/02 02:17:49;;;;;;;3.10;1.00;;;;;;;20.63;38.17;100750.36;117235;1185;22812;-65
2022/09/02 02:20:17;;;;;;;2.10;0.90;;;;;;;20.62;38.11;100752.34;117046;1185;21925;-59
2022/09/02 02:22:44;;;;;;;4.40;1.20;;;;;;;20.61;38.07;100751.88;117338;1181;23459;-64
2022/09/02 02:25:13;;;;;;;3.60;1.00;;;;;;;20.59;38.17;100753.22;117143;1186;23488;-59
2022/09/02 02:27:41;;;;;;;2.00;0.90;;;;;;;20.56;38.09;100755.86;117172;1183;21851;-59
2022/09/02 02:30:10;;;;;;;4.30;1.30;;;;;;;20.50;38.12;100754.90;117131;1189;23762;-65
2022/09/02 02:32:37;;;;;;;5.40;1.50;;;;;;;20.47;38.12;100757.71;117071;1184;22161;-64
2022/09/02 02:35:06;;;;;;;3.80;0.80;;;;;;;20.43;38.21;100762.54;117209;1182;22304;-64
2022/09/02 02:37:33;;;;;;;3.60;1.00;;;;;;;20.39;38.20;100766.64;117385;1185;21855;-60
2022/09/02 02:40:00;;;;;;;3.30;1.20;;;;;;;20.33;38.26;100765.98;117094;1185;22928;-64
2022/09/02 02:42:27;;;;;;;5.50;1.00;;;;;;;20.28;38.31;100773.73;117152;1185;22995;-59
2022/09/02 02:44:54;;;;;;;9.50;1.50;;;;;;;20.23;38.26;100780.59;117238;1182;24162;-65
2022/09/02 02:47:22;;;;;;;3.30;1.00;;;;;;;20.16;38.47;100776.81;117045;1188;21854;-64
2022/09/02 02:49:49;;;;;;;8.60;1.70;;;;;;;20.08;38.53;100781.63;117063;1187;23557;-65
2022/09/02 02:52:15;;;;;;;6.60;1.60;;;;;;;19.99;38.52;100780.73;117195;1187;23068;-65
2022/09/02 02:54:42;;;;;;;6.20;1.30;;;;;;;19.94;38.56;100779.91;117051;1187;21865;-59
2022/09/02 02:57:09;;;;;;;4.00;1.30;;;;;;;19.91;38.52;100779.89;117058;1188;23034;-65
2022/09/02 02:59:37;;;;;;;5.60;1.30;;;;;;;19.85;38.59;100777.45;117297;1188;21909;-60
2022/09/02 03:02:05;;;;;;;5.40;1.10;;;;;;;19.76;38.80;100776.06;117093;1188;22644;-59
2022/09/02 03:04:32;;;;;;;11.00;1.70;;;;;;;19.69;38.79;100777.60;117115;1187;21861;-63
2022/09/02 03:06:59;;;;;;;13.50;1.90;;;;;;;19.63;38.81;100776.80;117085;1183;22934;-59
2022/09/02 03:09:26;;;;;;;11.00;1.70;;;;;;;19.57;38.89;100780.80;116841;1188;21865;-63
2022/09/02 03:11:53;;;;;;;14.50;1.70;;;;;;;19.53;38.83;100783.30;117043;1187;21971;-58
2022/09/02 03:14:21;;;;;;;13.50;1.70;;;;;;;19.49;38.97;100784.88;117010;1187;23577;-63
2022/09/02 03:16:48;;;;;;;11.20;1.60;;;;;;;19.46;38.98;100780.73;117039;1186;21858;-64
2022/09/02 03:19:15;;;;;;;5.20;1.60;;;;;;;19.45;38.94;100782.55;116914;1187;23569;-58
2022/09/02 03:21:42;;;;;;;8.90;1.70;;;;;;;19.43;38.97;100787.83;116964;1186;23568;-64
2022/09/02 03:24:10;;;;;;;10.00;2.50;;;;;;;19.42;39.17;100787.86;116946;1186;22606;-59
2022/09/02 03:26:37;;;;;;;10.20;1.50;;;;;;;19.40;39.28;100792.20;117321;1186;21853;-64
2022/09/02 03:29:04;;;;;;;8.60;1.40;;;;;;;19.41;39.32;100797.15;117203;1186;21856;-64
2022/09/02 03:31:31;;;;;;;5.70;1.40;;;;;;;19.43;39.25;100802.20;116873;1182;22930;-63
2022/09/02 03:33:59;;;;;;;11.30;1.60;;;;;;;19.46;39.21;100807.44;117109;1186;23021;-59
2022/09/02 03:36:28;;;;;;;4.70;1.30;;;;;;;19.49;39.25;100811.76;117507;1184;23694;-64
2022/09/02 03:38:56;;;;;;;4.30;1.30;;;;;;;19.51;39.30;100813.98;117031;1184;21911;-65
2022/09/02 03:41:23;;;;;;;7.20;1.40;;;;;;;19.53;39.31;100817.46;116997;1184;23025;-64
2022/09/02 03:43:50;;;;;;;4.80;1.70;;;;;;;19.55;39.39;100818.42;117035;1186;22932;-58
2022/09/02 03:46:19;;;;;;;3.60;1.30;;;;;;;19.57;39.26;100819.27;117078;1187;22930;-64
2022/09/02 03:48:46;;;;;;;4.00;1.50;;;;;;;19.58;39.24;100820.99;117163;1188;23452;-64
2022/09/02 03:51:13;;;;;;;5.40;1.60;;;;;;;19.59;39.28;100826.11;117049;1187;23037;-59
2022/09/02 03:53:40;;;;;;;6.40;1.30;;;;;;;19.61;39.22;100825.48;116911;1188;21921;-64
2022/09/02 03:56:10;;;;;;;8.20;1.70;;;;;;;19.63;39.32;100817.22;116881;1185;23559;-64
2022/09/02 03:58:39;;;;;;;4.80;1.20;;;;;;;19.66;39.30;100810.31;116950;1184;22929;-58
2022/09/02 04:01:11;;;;;;;9.80;1.90;;;;;;;19.70;39.38;100806.74;117037;1186;21961;-58
2022/09/02 04:03:38;;;;;;;6.40;1.60;;;;;;;19.76;39.45;100804.72;117113;1186;21854;-67
2022/09/02 04:06:08;;;;;;;23.80;3.10;;;;;;;19.86;39.62;100806.63;117165;1186;22311;-64
2022/09/02 04:08:36;;;;;;;9.10;2.50;;;;;;;19.98;39.47;100812.89;116951;1186;23489;-63
2022/09/02 04:11:10;;;;;;;14.40;2.00;;;;;;;20.05;39.39;100817.20;116965;1186;22076;-64
2022/09/02 04:13:38;;;;;;;5.10;2.00;;;;;;;20.11;39.36;100823.52;117128;1188;22992;-65
2022/09/02 04:16:10;;;;;;;4.00;1.70;;;;;;;20.16;39.26;100819.73;117275;1182;24706;-58
2022/09/02 04:18:38;;;;;;;5.90;1.40;;;;;;;20.20;39.28;100823.08;117300;1184;22938;-58
2022/09/02 04:21:07;;;;;;;6.20;1.80;;;;;;;20.26;39.28;100828.02;117094;1187;23647;-59
2022/09/02 04:23:35;;;;;;;3.40;1.60;;;;;;;20.31;39.22;100829.20;116874;1187;23581;-58
2022/09/02 04:26:04;;;;;;;4.60;1.40;;;;;;;20.35;39.20;100827.92;116917;1186;22922;-64
2022/09/02 04:28:31;;;;;;;3.70;1.50;;;;;;;20.41;39.22;100829.98;117071;1186;21899;-64
2022/09/02 04:30:58;;;;;;;5.50;1.50;;;;;;;20.46;39.18;100832.45;116978;1186;22929;-65
2022/09/02 04:33:25;;;;;;;6.20;1.60;;;;;;;20.51;39.16;100834.55;116941;1187;21865;-58
2022/09/02 04:35:52;;;;;;;4.80;1.50;;;;;;;20.57;39.13;100831.23;116909;1187;23556;-65
2022/09/02 04:38:21;;;;;;;5.90;1.60;;;;;;;20.64;39.17;100830.55;117027;1187;23459;-65
2022/09/02 04:40:48;;;;;;;6.20;1.60;;;;;;;20.72;39.12;100830.67;116955;1182;23460;-58
2022/09/02 04:43:15;;;;;;;6.80;2.10;;;;;;;20.80;39.08;100832.28;116957;1188;23452;-65
2022/09/02 04:45:43;;;;;;;3.50;1.20;;;;;;;20.89;38.97;100834.89;117014;1185;24179;-65
2022/09/02 04:48:10;;;;;;;4.90;1.50;;;;;;;21.01;38.99;100838.97;117017;1189;21898;-58
2022/09/02 04:50:38;;;;;;;3.90;1.50;;;;;;;21.13;38.88;100836.98;116957;1187;22927;-65
2022/09/02 04:53:05;;;;;;;6.10;1.80;;;;;;;21.24;38.71;100836.05;117172;1186;22929;-65
2022/09/02 04:55:33;;;;;;;5.90;2.20;;;;;;;21.37;38.61;100838.99;117067;1185;22036;-58
2022/09/02 04:58:00;;;;;;;10.70;1.70;;;;;;;21.50;38.52;100834.95;117109;1185;24154;-58
2022/09/02 05:00:28;;;;;;;5.70;1.90;;;;;;;21.63;38.38;100834.15;117009;1185;21839;-64
2022/09/02 05:02:55;;;;;;;8.60;1.70;;;;;;;21.76;38.26;100833.66;117009;1187;22593;-65
2022/09/02 05:05:23;;;;;;;6.10;1.70;;;;;;;21.89;38.23;100830.11;116986;1187;22957;-64
2022/09/02 05:07:50;;;;;;;11.50;1.60;;;;;;;22.03;38.10;100827.44;117029;1186;21855;-64
2022/09/02 05:10:17;;;;;;;4.60;1.30;;;;;;;22.15;38.12;100827.13;116999;1185;24197;-65
2022/09/02 05:12:44;;;;;;;3.30;1.30;;;;;;;22.28;37.83;100828.06;116958;1186;21879;-66
2022/09/02 05:15:11;;;;;;;4.40;1.50;;;;;;;22.41;37.70;100833.61;116985;1186;21844;-65
2022/09/02 05:17:38;;;;;;;3.00;1.30;;;;;;;22.55;37.67;100840.23;116993;1184;24176;-66
2022/09/02 05:20:06;;;;;;;7.50;1.70;;;;;;;22.67;37.41;100843.49;117026;1186;21857;-66
2022/09/02 05:22:34;;;;;;;3.10;1.50;;;;;;;22.78;37.14;100847.33;117449;1186;22919;-66
2022/09/02 05:25:06;;;;;;;4.10;1.00;;;;;;;22.91;37.01;100850.21;117248;1185;23651;-59
2022/09/02 05:27:34;;;;;;;3.10;1.20;;;;;;;23.04;36.86;100848.76;117200;1186;21903;-58
2022/09/02 05:30:04;;;;;;;4.10;1.10;;;;;;;23.16;36.73;100846.46;117107;1187;21881;-59
2022/09/02 05:32:34;;;;;;;4.20;1.40;;;;;;;23.28;36.79;100842.23;117014;1186;21866;-65
2022/09/02 05:35:04;;;;;;;3.40;1.40;;;;;;;23.39;36.53;100837.62;117011;1186;22096;-57
2022/09/02 05:37:31;;;;;;;2.70;1.40;;;;;;;23.51;36.55;100843.21;117790;1186;21859;-65
2022/09/02 05:39:58;;;;;;;2.30;1.00;;;;;;;23.64;36.38;100848.02;116831;1183;22932;-65
2022/09/02 05:42:28;;;;;;;2.40;1.30;;;;;;;23.74;36.26;100852.73;119325;1186;21802;-66
2022/09/02 05:44:56;;;;;;;3.30;1.30;;;;;;;23.91;36.16;100855.19;117177;1185;22622;-67
2022/09/02 05:47:23;;;;;;;3.80;1.40;;;;;;;24.02;35.89;100854.54;117009;1186;22503;-59
2022/09/02 05:49:51;;;;;;;6.70;1.50;;;;;;;24.14;35.75;100859.54;117028;1183;22183;-59
2022/09/02 05:52:18;;;;;;;4.00;1.20;;;;;;;24.25;35.75;100860.26;117067;1182;23006;-64
2022/09/02 05:54:45;;;;;;;4.10;1.20;;;;;;;24.38;35.64;100865.02;116819;1186;21859;-57
2022/09/02 05:57:13;;;;;;;5.90;1.60;;;;;;;24.50;35.42;100863.73;117006;1186;23753;-65
2022/09/02 05:59:41;;;;;;;6.30;1.20;;;;;;;24.63;35.47;100862.39;116958;1185;24252;-65
2022/09/02 06:02:09;;;;;;;7.20;1.50;;;;;;;24.78;35.31;100861.46;117066;1186;23544;-58
2022/09/02 06:04:41;;;;;;;3.40;1.40;;;;;;;24.94;35.25;100856.65;116919;1187;21869;-58
2022/09/02 06:07:08;;;;;;;4.60;1.40;;;;;;;25.10;35.12;100850.63;119115;1179;21809;-58
2022/09/02 06:09:39;;;;;;;5.40;1.50;;;;;;;25.26;34.81;100841.31;118536;1185;22616;-58
2022/09/02 06:12:07;;;;;;;7.40;1.20;;;;;;;25.40;34.77;100836.80;119142;1187;21664;-66
2022/09/02 06:14:34;;;;;;;5.00;1.20;;;;;;;25.61;34.51;100830.91;117411;1189;21859;-66
2022/09/02 06:17:01;;;;;;;5.50;1.40;;;;;;;25.81;34.42;100832.01;116920;1186;23769;-57
2022/09/02 06:19:31;;;;;;;4.50;1.20;;;;;;;26.07;34.26;100826.11;116938;1187;21857;-66
2022/09/02 06:21:59;;;;;;;6.30;1.20;;;;;;;26.32;33.96;100830.09;117091;1184;21859;-59
2022/09/02 06:24:27;;;;;;;8.20;1.30;;;;;;;26.58;33.72;100831.15;117109;1187;22966;-58
2022/09/02 06:26:54;;;;;;;8.90;1.60;;;;;;;26.85;33.53;100830.65;117112;1186;22912;-65
2022/09/02 06:29:22;;;;;;;8.80;1.80;;;;;;;27.10;33.15;100829.16;117058;1184;22936;-58
2022/09/02 06:31:49;;;;;;;5.20;1.50;;;;;;;27.33;33.02;100827.03;116832;1187;23559;-65
2022/09/02 06:34:17;;;;;;;6.70;1.40;;;;;;;27.54;32.92;100822.63;117145;1186;22949;-59
2022/09/02 06:36:45;;;;;;;5.30;1.00;;;;;;;27.74;32.80;100827.05;116839;1188;23483;-65
2022/09/02 06:39:17;;;;;;;5.90;1.50;;;;;;;27.91;32.50;100831.66;116933;1186;23532;-65
2022/09/02 06:41:45;;;;;;;4.20;1.50;;;;;;;28.06;32.20;100828.30;116953;1184;22975;-66
2022/09/02 06:44:14;;;;;;;5.90;1.70;;;;;;;28.18;31.97;100829.20;117008;1184;22918;-58
2022/09/02 06:46:44;;;;;;;6.30;1.70;;;;;;;28.26;31.46;100829.01;117069;1183;23003;-59
2022/09/02 06:49:11;;;;;;;5.10;1.50;;;;;;;28.28;31.42;100825.34;116900;1187;21876;-66
2022/09/02 06:51:42;;;;;;;4.00;1.90;;;;;;;28.31;31.37;100826.35;119146;1182;21800;-67
2022/09/02 06:54:12;;;;;;;7.60;2.10;;;;;;;28.34;31.08;100827.58;118553;1182;21858;-59
2022/09/02 06:56:40;;;;;;;5.00;2.00;;;;;;;28.37;30.90;100829.14;119197;1187;21780;-60
2022/09/02 06:59:12;;;;;;;6.30;2.30;;;;;;;28.40;30.77;100832.88;119193;1187;21795;-60
2022/09/02 07:01:40;;;;;;;5.50;2.30;;;;;;;28.43;30.70;100831.94;119193;1185;21764;-61
2022/09/02 07:06:53;;;;;;;8.20;3.00;;;;;;;28.62;30.43;100827.86;117107;1186;21918;-66
2022/09/02 07:09:23;;;;;;;6.40;3.10;;;;;;;28.74;29.96;100829.96;117008;1187;22881;-68
2022/09/02 07:11:50;;;;;;;8.40;3.60;;;;;;;28.85;29.89;100827.85;117144;1187;22926;-59
2022/09/02 07:14:18;;;;;;;10.00;3.40;;;;;;;28.94;29.64;100830.33;117107;1188;22929;-58
2022/09/02 07:16:49;;;;;;;7.50;4.40;;;;;;;29.03;29.42;100833.39;117004;1184;24156;-68
2022/09/02 07:19:20;;;;;;;7.40;3.90;;;;;;;29.10;29.19;100834.98;117036;1184;21961;-59
2022/09/02 07:21:48;;;;;;;;;;;;;;;29.19;29.29;100833.15;117014;1185;22000;-67
2022/09/02 07:24:15;;;;;;;9.20;4.20;;;;;;;29.30;29.02;100841.23;117259;1186;21915;-59
2022/09/02 07:26:42;;;;;;;6.50;3.80;;;;;;;29.40;28.44;100847.13;117115;1183;23573;-69
2022/09/02 07:29:09;;;;;;;11.00;4.40;;;;;;;29.48;28.25;100855.65;117146;1185;22644;-59
2022/09/02 07:31:39;;;;;;;10.10;4.20;;;;;;;29.57;28.29;100859.77;117194;1187;24256;-59
2022/09/02 07:34:06;;;;;;;8.30;3.80;;;;;;;29.70;28.10;100860.54;117206;1186;21845;-67
2022/09/02 07:36:36;;;;;;;10.50;3.70;;;;;;;29.81;28.20;100855.25;117326;1185;22914;-59
2022/09/02 07:39:04;;;;;;;6.80;3.40;;;;;;;29.98;27.99;100851.94;117205;1183;23465;-69
2022/09/02 07:41:31;;;;;;;10.30;3.80;;;;;;;30.15;27.80;100853.78;118653;1185;22323;-60
2022/09/02 07:43:59;;;;;;;7.60;2.70;;;;;;;30.29;27.72;100846.38;119246;1185;22164;-68
2022/09/02 07:46:28;;;;;;;5.40;2.60;;;;;;;30.40;27.48;100850.98;119343;1185;21797;-60
2022/09/02 07:48:55;;;;;;;4.40;3.00;;;;;;;30.54;27.13;100854.00;118058;1186;22918;-68
2022/09/02 07:51:22;;;;;;;5.80;2.80;;;;;;;30.65;27.09;100858.61;117210;1183;22958;-68
2022/09/02 07:53:56;;;;;;;6.80;3.20;;;;;;;30.77;26.92;100858.13;117181;1185;21854;-68
2022/09/02 07:56:23;;;;;;;8.10;2.90;;;;;;;30.89;26.80;100857.38;117292;1183;22925;-67
2022/09/02 07:58:50;;;;;;;7.10;2.90;;;;;;;31.02;26.80;100857.24;117331;1186;23458;-59
2022/09/02 08:01:17;;;;;;;10.60;3.40;;;;;;;31.17;26.73;100851.20;117350;1183;22915;-68
2022/09/02 08:03:49;;;;;;;6.60;2.50;;;;;;;31.32;26.58;100844.21;117245;1187;23014;-68
2022/09/02 08:06:16;;;;;;;4.40;2.50;;;;;;;31.44;26.33;100838.40;117192;1186;21863;-59
2022/09/02 08:08:54;;;;;;;6.40;2.90;;;;;;;31.51;26.13;100838.34;117142;1189;21845;-68
2022/09/02 08:11:23;;;;;;;9.40;3.10;;;;;;;31.54;25.96;100842.38;117432;1184;21855;-67
2022/09/02 08:13:50;;;;;;;8.00;3.20;;;;;;;31.55;25.70;100845.17;117169;1183;23579;-59
2022/09/02 08:16:18;;;;;;;6.40;2.60;;;;;;;31.58;25.76;100845.63;117117;1182;22941;-60
2022/09/02 08:18:48;;;;;;;8.40;3.00;;;;;;;31.61;25.57;100844.05;117190;1186;22878;-61
2022/09/02 08:21:19;;;;;;;8.90;2.80;;;;;;;31.62;25.46;100841.78;117107;1186;21861;-59
2022/09/02 08:23:49;;;;;;;4.40;2.70;;;;;;;31.65;25.31;100846.11;117034;1183;21959;-68
2022/09/02 08:26:18;;;;;;;6.90;2.90;;;;;;;31.69;25.29;100847.27;116951;1187;21919;-68
2022/09/02 08:28:46;;;;;;;5.10;3.00;;;;;;;31.80;25.26;100844.46;117002;1187;21846;-68
2022/09/02 08:31:15;;;;;;;9.90;3.20;;;;;;;31.95;25.13;100843.62;117151;1184;22881;-68
2022/09/02 08:33:43;;;;;;;7.30;3.60;;;;;;;32.10;25.15;100844.18;117162;1185;22169;-69
2022/09/02 08:36:13;;;;;;;7.80;3.40;;;;;;;32.23;25.02;100841.45;117058;1188;21977;-60
2022/09/02 08:38:41;;;;;;;5.70;3.30;;;;;;;32.34;24.93;100841.34;117089;1186;21857;-69
2022/09/02 08:41:24;;;;;;;7.00;3.40;;;;;;;32.45;24.77;100839.76;117169;1186;22851;-68
2022/09/02 08:43:54;;;;;;;11.40;4.10;;;;;;;32.50;24.60;100838.13;117137;1186;21856;-69
2022/09/02 08:46:24;;;;;;;12.20;4.30;;;;;;;32.61;24.42;100843.95;116937;1184;21859;-61
2022/09/02 08:49:10;;;;;;;7.70;3.30;;;;;;;32.79;24.33;100839.69;117038;1186;21862;-60
2022/09/02 08:51:46;;;;;;;7.60;3.10;;;;;;;33.00;24.17;100833.42;117028;1182;23697;-60
2022/09/02 08:54:20;;;;;;;;;;;;;;;33.17;23.99;100836.41;116994;1187;21976;-68
2022/09/02 08:56:50;;;;;;;8.90;2.70;;;;;;;33.31;23.77;100835.77;117058;1187;22926;-60
2022/09/02 08:59:21;;;;;;;8.10;2.90;;;;;;;33.41;23.52;100834.73;117241;1183;23450;-60
2022/09/02 09:02:07;;;;;;;6.30;2.60;;;;;;;33.55;23.54;100831.02;117100;1185;22953;-70
2022/09/02 09:05:00;;;;;;;5.20;2.40;;;;;;;33.71;23.34;100815.36;117081;1187;22900;-69
2022/09/02 09:07:30;;;;;;;7.40;2.60;;;;;;;33.89;23.08;100815.34;117160;1186;23635;-60
2022/09/02 09:09:58;;;;;;;5.10;2.60;;;;;;;34.02;23.02;100817.92;117127;1187;23000;-60
2022/09/02 09:12:54;;;;;;;4.60;2.30;;;;;;;34.09;22.89;100816.45;117073;1189;21849;-69
2022/09/02 09:15:32;;;;;;;4.70;2.30;;;;;;;34.16;22.69;100815.09;117279;1184;23567;-69
2022/09/02 09:18:03;;;;;;;6.50;2.30;;;;;;;34.17;22.62;100816.15;117255;1183;22943;-70
2022/09/02 09:20:32;;;;;;;5.40;2.20;;;;;;;34.24;22.56;100814.74;117235;1186;21941;-68
2022/09/02 09:23:01;;;;;;;6.00;2.00;;;;;;;34.38;22.48;100813.27;117092;1186;22933;-68
2022/09/02 09:25:31;;;;;;;6.40;2.60;;;;;;;34.53;22.56;100815.85;117201;1188;22988;-69
2022/09/02 09:27:58;;;;;;;8.30;3.10;;;;;;;34.71;22.26;100817.23;117111;1182;22932;-60
2022/09/02 09:30:26;;;;;;;11.80;2.10;;;;;;;34.88;22.14;100817.73;117101;1185;23558;-69
2022/09/02 09:32:56;;;;;;;6.40;2.50;;;;;;;35.03;22.12;100818.86;117074;1182;22927;-68
2022/09/02 09:35:23;;;;;;;7.40;2.20;;;;;;;35.18;21.97;100817.45;117101;1186;22814;-69
2022/09/02 09:37:54;;;;;;;4.90;1.80;;;;;;;35.29;21.63;100817.11;117269;1186;21859;-69
2022/09/02 09:40:29;;;;;;;5.80;2.50;;;;;;;35.28;21.48;100818.64;117031;1188;21860;-61
2022/09/02 09:43:12;;;;;;;7.90;2.20;;;;;;;35.19;21.58;100820.59;117109;1186;23637;-61
2022/09/02 09:45:45;;;;;;;5.30;2.30;;;;;;;35.08;21.47;100811.56;117114;1186;22104;-68
2022/09/02 09:48:16;;;;;;;5.40;2.10;;;;;;;34.96;21.38;100807.45;117105;1188;21916;-70
2022/09/02 09:51:11;;;;;;;5.80;2.30;;;;;;;34.81;21.16;100808.14;117229;1183;23500;-70
2022/09/02 09:53:39;;;;;;;4.00;2.20;;;;;;;34.64;21.15;100803.40;117166;1188;22927;-69
2022/09/02 09:56:12;;;;;;;4.50;2.10;;;;;;;34.52;21.19;100806.98;117220;1185;21897;-69
2022/09/02 09:58:39;;;;;;;7.30;2.10;;;;;;;34.35;21.34;100805.91;117115;1186;22928;-68
2022/09/02 10:01:15;;;;;;;4.30;2.70;;;;;;;34.31;21.42;100804.70;117316;1184;21852;-70
2022/09/02 10:03:56;;;;;;;4.40;2.30;;;;;;;34.33;21.47;100802.13;117121;1187;21847;-61
2022/09/02 10:06:32;;;;;;;;;;;;;;;34.42;21.21;100799.52;117296;1182;22967;-68
2022/09/02 10:09:01;;;;;;;4.40;2.40;;;;;;;34.53;20.99;100803.27;117179;1185;21930;-60
2022/09/02 10:11:30;;;;;;;5.20;2.20;;;;;;;34.61;21.16;100804.84;117167;1187;21848;-60
2022/09/02 10:14:03;;;;;;;6.80;2.00;;;;;;;34.70;21.02;100804.41;117203;1182;21857;-68
2022/09/02 10:17:08;;;;;;;7.20;2.10;;;;;;;34.85;20.86;100805.70;117246;1183;21978;-61
2022/09/02 10:19:38;;;;;;;7.00;2.00;;;;;;;35.07;20.89;100802.02;117336;1185;22801;-69
2022/09/02 10:22:12;;;;;;;3.40;2.10;;;;;;;35.27;20.82;100802.06;117245;1186;21906;-69
2022/09/02 10:25:20;;;;;;;4.10;2.20;;;;;;;35.43;20.69;100806.14;117093;1186;22831;-68
2022/09/02 10:28:24;;;;;;;3.80;1.90;;;;;;;35.59;20.69;100809.14;117076;1188;22921;-71
2022/09/02 10:31:09;;;;;;;5.00;1.90;;;;;;;35.70;20.05;100811.48;117083;1186;21967;-69
2022/09/02 10:33:56;;;;;;;4.70;2.00;;;;;;;35.76;20.38;100808.05;117340;1182;21848;-62
2022/09/02 10:36:35;;;;;;;4.70;2.30;;;;;;;35.84;20.24;100805.50;117305;1185;22622;-60
2022/09/02 10:39:40;;;;;;;6.40;2.60;;;;;;;35.95;20.16;100802.48;117074;1182;22156;-70
2022/09/02 10:42:31;;;;;;;8.60;3.70;;;;;;;36.04;20.10;100808.04;117239;1186;23579;-60
2022/09/02 10:45:12;;;;;;;8.30;2.60;;;;;;;36.02;20.14;100806.84;117229;1186;22597;-61
2022/09/02 10:47:39;;;;;;;5.90;2.70;;;;;;;35.95;19.95;100798.46;117052;1186;21831;-62
2022/09/02 10:50:34;;;;;;;9.60;3.60;;;;;;;35.92;19.87;100808.67;117086;1186;23563;-61
2022/09/02 10:53:11;;;;;;;12.30;4.70;;;;;;;35.87;19.89;100805.90;117233;1185;21856;-62
2022/09/02 10:56:05;;;;;;;6.10;3.60;;;;;;;35.76;19.59;100801.14;117176;1186;21855;-72
2022/09/02 10:58:49;;;;;;;5.10;2.60;;;;;;;35.57;19.83;100799.60;117165;1187;22947;-61
2022/09/02 11:01:23;;;;;;;5.10;2.40;;;;;;;35.60;19.88;100797.64;116978;1186;21862;-62
2022/09/02 11:03:56;;;;;;;6.80;2.30;;;;;;;35.72;19.80;100794.00;117323;1186;22997;-70
2022/09/02 11:06:27;;;;;;;5.00;2.10;;;;;;;35.88;19.68;100784.13;116969;1188;21856;-61
2022/09/02 11:09:28;;;;;;;3.80;1.80;;;;;;;36.03;19.40;100780.40;117011;1187;23001;-70
2022/09/02 11:12:00;;;;;;;6.20;2.20;;;;;;;36.15;19.35;100782.19;117110;1187;21877;-61
2022/09/02 11:14:51;;;;;;;4.40;2.10;;;;;;;36.20;19.60;100780.17;117231;1183;22023;-69
2022/09/02 11:17:48;;;;;;;7.80;2.40;;;;;;;36.23;19.46;100771.79;117004;1188;22999;-70
2022/09/02 11:20:29;;;;;;;6.10;2.40;;;;;;;36.22;19.26;100769.64;117121;1186;23584;-71
2022/09/02 11:23:26;;;;;;;4.20;1.80;;;;;;;36.20;19.28;100766.24;117265;1186;21857;-62
2022/09/02 11:26:04;;;;;;;9.90;2.40;;;;;;;36.23;19.20;100763.30;117011;1186;23580;-61
2022/09/02 11:29:01;;;;;;;5.40;2.50;;;;;;;36.26;19.24;100768.41;117121;1187;23560;-70
2022/09/02 11:31:57;;;;;;;5.00;1.80;;;;;;;36.32;19.20;100765.98;117032;1187;22164;-59
2022/09/02 11:34:34;;;;;;;5.20;2.50;;;;;;;36.34;18.97;100754.63;117023;1184;22927;-68
2022/09/02 11:37:09;;;;;;;7.20;2.30;;;;;;;36.29;19.11;100748.17;117002;1188;21884;-70